Fort Albany, Canada
Current Conditions -  °F | °C
As of 4:11 PM on Friday 28 Nov 2014 (Local Time) from CYMO Reporting Station
Scattered Clouds Scattered Clouds  
Wind Chill: -11°   Ceiling: Unl
Heat Index:   Visibility: 9mi
Dew Point: -4°   Wind: 7mph
Humidity: 78%   Direction: 240°WSW
Pressure: 30.11"   Gusts: NA
Location:  52.25°N, 81.62°W
Report Text: CYMO 282111Z AUTO 24006KT 9SM SCT085 M17/M20 A3011 RMK SLP198
Loading
Personal Weather Stations






























Interactive Weather Map New forecast layout! Learn more

10-Day Weather Forecast

Advertisements
Track Severe Weather on mobile